Time;durP1;ratioP1;P1;durP2;ratioP2;P2;SDS_P1;SDS_P2;PMS_P1;PMS_P2;Temp;Humidity;BMP_temperature;BMP_pressure;BME280_temperature;BME280_humidity;BME280_pressure;Samples;Min_cycle;Max_cycle;Signal;HPM_P1;HPM_P2
2022/05/26 00:00:06;;;;;;;4.70;2.72;;;11.50;99.90;;;;;;5026647;28;20117;-74
2022/05/26 00:02:32;;;;;;;6.13;3.17;;;11.40;99.90;;;;;;5028123;28;20112;-73
2022/05/26 00:04:57;;;;;;;5.00;2.80;;;11.30;99.90;;;;;;5022846;28;20112;-71
2022/05/26 00:07:23;;;;;;;4.20;2.95;;;11.30;99.90;;;;;;5027837;28;20049;-72
2022/05/26 00:09:49;;;;;;;6.63;2.85;;;11.30;99.90;;;;;;5027273;28;20077;-72
2022/05/26 00:12:16;;;;;;;7.30;2.83;;;11.30;99.90;;;;;;5025620;28;20064;-73
2022/05/26 00:14:42;;;;;;;5.05;3.05;;;11.20;99.90;;;;;;5028761;28;20515;-73
2022/05/26 00:17:08;;;;;;;4.60;2.80;;;11.20;99.90;;;;;;5026818;28;20044;-74
2022/05/26 00:19:36;;;;;;;3.38;2.60;;;11.10;99.90;;;;;;5027504;28;20471;-72
2022/05/26 00:22:02;;;;;;;4.68;3.28;;;11.10;99.90;;;;;;5026676;28;20429;-71
2022/05/26 00:24:28;;;;;;;5.75;3.40;;;11.10;99.90;;;;;;5025098;28;20091;-73
2022/05/26 00:26:54;;;;;;;4.82;3.17;;;11.10;99.90;;;;;;5028590;28;20033;-73
2022/05/26 00:29:19;;;;;;;4.43;3.00;;;11.00;99.90;;;;;;5026572;28;20030;-72
2022/05/26 00:31:45;;;;;;;4.50;2.80;;;11.00;99.90;;;;;;5024882;28;20029;-72
2022/05/26 00:34:11;;;;;;;4.30;2.85;;;11.10;99.90;;;;;;5026414;28;20037;-74
2022/05/26 00:36:41;;;;;;;5.25;2.92;;;11.00;99.90;;;;;;5027999;28;20041;-72
2022/05/26 00:39:33;;;;;;;5.03;2.85;;;10.90;99.90;;;;;;5026081;28;20064;-74
2022/05/26 00:42:01;;;;;;;4.75;2.90;;;10.90;99.90;;;;;;5019019;28;20053;-70
2022/05/26 00:44:28;;;;;;;6.03;2.83;;;10.90;99.90;;;;;;5026091;28;20029;-73
2022/05/26 00:47:15;;;;;;;5.07;2.60;;;10.80;99.90;;;;;;5027024;28;20487;-73
2022/05/26 00:49:51;;;;;;;7.43;2.90;;;10.80;99.90;;;;;;5027957;28;20037;-72
2022/05/26 00:52:42;;;;;;;4.93;2.85;;;10.80;99.90;;;;;;5026329;28;20382;-73
2022/05/26 00:55:25;;;;;;;;;;;10.90;99.90;;;;;;5027914;28;20044;-72
2022/05/26 00:57:54;;;;;;;4.28;2.70;;;10.80;99.90;;;;;;5025335;28;19909;-74
2022/05/26 01:00:26;;;;;;;4.05;2.83;;;10.70;99.90;;;;;;5022190;28;20234;-74
2022/05/26 01:03:03;;;;;;;6.03;3.03;;;10.80;99.90;;;;;;5042179;28;20029;-73
2022/05/26 01:05:37;;;;;;;3.72;2.50;;;10.70;99.90;;;;;;5021276;28;20104;-71
2022/05/26 01:08:07;;;;;;;4.82;3.00;;;10.60;99.90;;;;;;5025969;28;20470;-71
2022/05/26 01:10:33;;;;;;;6.10;2.80;;;10.50;99.90;;;;;;5026245;28;20053;-73
2022/05/26 01:12:58;;;;;;;5.68;2.95;;;10.50;99.90;;;;;;5026840;28;20107;-72
2022/05/26 01:15:30;;;;;;;5.68;2.95;;;10.60;99.90;;;;;;5010449;28;20203;-73
2022/05/26 01:18:01;;;;;;;4.10;2.63;;;10.60;99.90;;;;;;5028912;28;20026;-74
2022/05/26 01:20:57;;;;;;;5.90;2.70;;;10.70;99.90;;;;;;5031886;28;20029;-73
2022/05/26 01:24:00;;;;;;;3.88;2.72;;;10.70;99.90;;;;;;5026794;28;20025;-73
2022/05/26 01:26:50;;;;;;;6.13;3.40;;;10.70;99.90;;;;;;5019723;28;20037;-73
2022/05/26 01:29:24;;;;;;;4.57;2.80;;;10.80;99.90;;;;;;5030696;28;20029;-74
2022/05/26 01:32:03;;;;;;;5.53;2.63;;;10.90;99.90;;;;;;5030579;28;20955;-73
2022/05/26 01:34:38;;;;;;;6.00;2.50;;;10.90;99.90;;;;;;5030567;28;20041;-72
2022/05/26 01:37:03;;;;;;;4.85;2.72;;;11.00;99.90;;;;;;5031097;28;20041;-70
2022/05/26 01:40:05;;;;;;;4.05;2.40;;;11.00;99.90;;;;;;5030203;28;20053;-73
2022/05/26 01:42:55;;;;;;;5.07;2.55;;;11.00;99.90;;;;;;5025486;28;20057;-73
2022/05/26 01:45:46;;;;;;;7.90;2.58;;;10.90;99.90;;;;;;5028544;28;20036;-74
2022/05/26 01:48:29;;;;;;;2.90;2.20;;;10.90;99.90;;;;;;5009274;28;20037;-73
2022/05/26 01:51:02;;;;;;;4.63;2.95;;;10.80;99.90;;;;;;5032029;28;20060;-73
2022/05/26 01:54:12;;;;;;;4.70;2.90;;;10.80;99.90;;;;;;5030106;28;20033;-73
2022/05/26 01:56:54;;;;;;;9.07;2.72;;;10.90;99.90;;;;;;5015948;28;20029;-72
2022/05/26 01:59:22;;;;;;;3.42;2.53;;;10.90;99.90;;;;;;5024238;28;20068;-72
2022/05/26 02:02:11;;;;;;;4.18;2.50;;;10.90;99.90;;;;;;5023748;28;20470;-70
2022/05/26 02:04:42;;;;;;;5.15;2.50;;;10.80;99.90;;;;;;5029320;28;20029;-74
2022/05/26 02:07:14;;;;;;;5.22;2.10;;;10.80;99.90;;;;;;5028199;28;20409;-71
2022/05/26 02:09:42;;;;;;;6.88;2.58;;;10.80;99.90;;;;;;5030690;28;20038;-71
2022/05/26 02:12:16;;;;;;;5.05;2.25;;;10.80;99.90;;;;;;5028719;28;20033;-71
2022/05/26 02:14:50;;;;;;;4.10;2.40;;;10.80;99.90;;;;;;5028857;28;20033;-72
2022/05/26 02:17:25;;;;;;;5.43;2.50;;;10.80;99.90;;;;;;5028003;28;20039;-74
2022/05/26 02:20:01;;;;;;;5.22;2.42;;;10.80;99.90;;;;;;5031128;28;20105;-73
2022/05/26 02:22:30;;;;;;;5.28;2.55;;;10.80;99.90;;;;;;5034440;28;20707;-72
2022/05/26 02:25:10;;;;;;;4.15;2.38;;;10.70;99.90;;;;;;5029391;28;20065;-71
2022/05/26 02:27:37;;;;;;;3.95;2.47;;;10.60;99.90;;;;;;5027098;28;20037;-72
2022/05/26 02:30:05;;;;;;;6.38;2.60;;;10.60;99.90;;;;;;5028582;28;20481;-72
2022/05/26 02:32:35;;;;;;;6.15;2.55;;;10.50;99.90;;;;;;5028486;28;20030;-73
2022/05/26 02:35:06;;;;;;;7.55;2.70;;;10.50;99.90;;;;;;5028483;28;20030;-72
2022/05/26 02:37:33;;;;;;;;;;;10.50;99.90;;;;;;5023508;28;20034;-73
2022/05/26 02:39:59;;;;;;;5.85;2.50;;;10.50;99.90;;;;;;5026075;28;19925;-72
2022/05/26 02:42:25;;;;;;;5.15;2.45;;;10.50;99.90;;;;;;5027313;28;20083;-72
2022/05/26 02:44:52;;;;;;;4.13;2.60;;;10.50;99.90;;;;;;5028925;28;20068;-74
2022/05/26 02:47:33;;;;;;;3.72;2.40;;;10.50;99.90;;;;;;5006956;28;20426;-73
2022/05/26 02:50:31;;;;;;;3.33;2.30;;;10.50;99.90;;;;;;5025807;28;20505;-72
2022/05/26 02:53:03;;;;;;;4.63;2.78;;;10.40;99.90;;;;;;5028757;28;20064;-74
2022/05/26 02:56:02;;;;;;;5.07;2.22;;;10.40;99.90;;;;;;5022431;28;20478;-72
2022/05/26 02:58:57;;;;;;;4.32;2.55;;;10.30;99.90;;;;;;5026050;28;20025;-73
2022/05/26 03:01:40;;;;;;;3.53;2.30;;;10.40;99.90;;;;;;5018470;28;20076;-72
2022/05/26 03:04:16;;;;;;;4.53;2.33;;;10.40;99.90;;;;;;5022141;28;20470;-73
2022/05/26 03:06:52;;;;;;;6.50;3.50;;;10.40;99.90;;;;;;5027281;28;20044;-73
2022/05/26 03:09:19;;;;;;;15.75;7.72;;;10.40;99.90;;;;;;5029488;28;20026;-73
2022/05/26 03:11:51;;;;;;;18.20;10.07;;;10.40;99.90;;;;;;5028022;28;20030;-73
2022/05/26 03:14:18;;;;;;;11.82;6.88;;;10.50;99.90;;;;;;5028065;28;20017;-72
2022/05/26 03:16:44;;;;;;;9.82;5.63;;;10.50;99.90;;;;;;5028755;28;20118;-73
2022/05/26 03:19:11;;;;;;;12.88;6.05;;;10.50;99.90;;;;;;5027933;28;20033;-70
2022/05/26 03:21:37;;;;;;;6.88;4.45;;;10.60;99.90;;;;;;5028388;28;20033;-74
2022/05/26 03:24:04;;;;;;;8.73;3.70;;;10.80;99.90;;;;;;5027242;28;20037;-74
2022/05/26 03:26:29;;;;;;;4.80;2.90;;;10.90;99.90;;;;;;5027659;28;20266;-72
2022/05/26 03:28:55;;;;;;;4.15;2.30;;;10.90;99.90;;;;;;5028040;28;20502;-72
2022/05/26 03:31:21;;;;;;;3.25;2.30;;;10.90;99.90;;;;;;5026434;28;20079;-74
2022/05/26 03:42:00;;;;;;;5.88;2.58;;;10.50;99.90;;;;;;5026666;28;20071;-70
2022/05/26 03:44:28;;;;;;;5.60;2.92;;;10.40;99.90;;;;;;5029825;28;20040;-73
2022/05/26 03:46:54;;;;;;;4.15;2.63;;;10.50;99.90;;;;;;5027564;28;20034;-72
2022/05/26 03:49:20;;;;;;;5.20;2.45;;;10.50;99.90;;;;;;5028830;28;20049;-73
2022/05/26 03:51:45;;;;;;;5.82;2.28;;;10.50;99.90;;;;;;5028862;28;20030;-73
2022/05/26 03:54:11;;;;;;;4.97;2.40;;;10.40;99.90;;;;;;5029211;28;20029;-69
2022/05/26 03:56:37;;;;;;;5.05;2.30;;;10.40;99.90;;;;;;5024891;28;20069;-73
2022/05/26 03:59:03;;;;;;;3.72;2.20;;;10.40;99.90;;;;;;5030354;28;20037;-73
2022/05/26 04:01:28;;;;;;;7.30;2.30;;;10.50;99.90;;;;;;5026238;28;20060;-72
2022/05/26 04:03:55;;;;;;;5.53;2.53;;;10.60;99.90;;;;;;5027154;28;20170;-73
2022/05/26 04:06:21;;;;;;;5.95;2.42;;;10.60;99.90;;;;;;5023147;28;20025;-74
2022/05/26 04:08:47;;;;;;;4.85;2.60;;;10.60;99.90;;;;;;5027292;28;20093;-72
2022/05/26 04:11:13;;;;;;;5.18;2.30;;;10.60;99.90;;;;;;5027416;28;20493;-69
2022/05/26 04:13:39;;;;;;;6.45;2.50;;;10.60;99.90;;;;;;5016967;28;20037;-70
2022/05/26 04:16:05;;;;;;;4.30;2.20;;;10.70;99.90;;;;;;5021465;28;20056;-71
2022/05/26 04:18:31;;;;;;;6.18;2.20;;;10.80;99.90;;;;;;5029006;28;20941;-73
2022/05/26 04:21:08;;;;;;;5.95;2.35;;;10.90;99.90;;;;;;5020890;28;20037;-74
2022/05/26 04:23:34;;;;;;;5.13;2.10;;;11.10;99.90;;;;;;5020106;28;20025;-70
2022/05/26 04:26:00;;;;;;;4.65;1.98;;;11.30;99.90;;;;;;5021754;28;20044;-73
2022/05/26 04:28:26;;;;;;;6.53;1.80;;;11.40;99.90;;;;;;5020324;28;20033;-72
2022/05/26 04:30:52;;;;;;;3.42;2.10;;;11.60;99.90;;;;;;5023263;28;20025;-73
2022/05/26 04:33:17;;;;;;;3.95;1.80;;;11.80;99.90;;;;;;5026618;28;20084;-70
2022/05/26 04:35:43;;;;;;;3.42;2.15;;;12.00;99.90;;;;;;5023449;28;20071;-72
2022/05/26 04:38:09;;;;;;;5.47;1.85;;;12.20;99.90;;;;;;5012759;28;20033;-72
2022/05/26 04:40:34;;;;;;;4.60;1.90;;;12.40;99.90;;;;;;5023310;28;20056;-73
2022/05/26 04:43:00;;;;;;;4.72;2.00;;;12.50;99.90;;;;;;5025811;28;20060;-72
2022/05/26 04:45:26;;;;;;;4.03;1.90;;;12.60;99.90;;;;;;5022551;28;20120;-75
2022/05/26 04:47:52;;;;;;;3.95;1.80;;;12.60;99.90;;;;;;5024855;28;20026;-75
2022/05/26 04:50:18;;;;;;;5.15;1.75;;;12.70;99.90;;;;;;5024890;28;20037;-71
2022/05/26 04:52:44;;;;;;;5.13;1.92;;;12.70;99.90;;;;;;5023090;28;20214;-73
2022/05/26 04:55:10;;;;;;;1.90;1.52;;;12.80;99.90;;;;;;5018848;28;20551;-74
2022/05/26 04:57:36;;;;;;;6.45;1.88;;;12.80;99.90;;;;;;5024120;28;20052;-73
2022/05/26 05:00:04;;;;;;;4.00;1.83;;;12.90;99.90;;;;;;5027528;28;20114;-74
2022/05/26 05:02:30;;;;;;;6.80;1.60;;;13.00;99.90;;;;;;5028225;28;20029;-73
2022/05/26 05:04:56;;;;;;;3.58;1.50;;;13.10;99.90;;;;;;5028576;28;20367;-75
2022/05/26 05:07:22;;;;;;;2.30;1.40;;;13.20;99.90;;;;;;5027701;28;20041;-73
2022/05/26 05:09:48;;;;;;;6.00;1.52;;;13.20;99.90;;;;;;5027427;28;20569;-72
2022/05/26 05:12:20;;;;;;;5.53;1.70;;;13.30;99.90;;;;;;5027252;28;20112;-71
2022/05/26 05:14:52;;;;;;;3.03;1.60;;;13.30;99.90;;;;;;5029701;28;20025;-74
2022/05/26 05:17:19;;;;;;;3.08;1.60;;;13.40;99.90;;;;;;5026588;28;20100;-72
2022/05/26 05:19:46;;;;;;;4.65;1.52;;;13.50;99.90;;;;;;5029316;28;20034;-74
2022/05/26 05:22:17;;;;;;;3.17;1.65;;;13.60;99.90;;;;;;5029003;28;20025;-72
2022/05/26 05:24:55;;;;;;;;;;;13.80;99.90;;;;;;5028055;28;20048;-74
2022/05/26 05:27:35;;;;;;;3.47;1.40;;;13.80;99.90;;;;;;5022917;28;20006;-73
2022/05/26 05:30:35;;;;;;;2.70;1.50;;;14.00;99.90;;;;;;5020503;28;20037;-73
2022/05/26 05:33:06;;;;;;;3.15;1.45;;;14.10;99.90;;;;;;5006166;28;20044;-73
2022/05/26 05:35:46;;;;;;;4.30;1.80;;;14.10;99.90;;;;;;5026636;28;20096;-74
2022/05/26 05:38:12;;;;;;;2.58;1.40;;;14.10;99.90;;;;;;5023904;28;20021;-73
2022/05/26 05:40:38;;;;;;;3.42;1.60;;;14.00;99.90;;;;;;5025532;28;20050;-74
2022/05/26 05:43:04;;;;;;;3.55;1.50;;;14.10;99.90;;;;;;5028926;28;20042;-73
2022/05/26 05:45:30;;;;;;;2.17;1.40;;;14.10;99.90;;;;;;5026301;28;20424;-75
2022/05/26 05:47:56;;;;;;;2.58;1.42;;;14.30;99.90;;;;;;5020678;28;20087;-75
2022/05/26 05:50:21;;;;;;;2.75;1.40;;;14.40;99.90;;;;;;5026337;28;20038;-71
2022/05/26 05:52:47;;;;;;;3.67;1.60;;;14.40;99.90;;;;;;5027163;28;20025;-72
2022/05/26 05:55:13;;;;;;;6.80;1.25;;;14.50;99.90;;;;;;5023597;28;20025;-74
2022/05/26 05:57:39;;;;;;;2.83;1.30;;;14.50;99.90;;;;;;4996202;28;20064;-75
2022/05/26 06:00:07;;;;;;;5.18;1.35;;;14.60;99.90;;;;;;5026117;28;20060;-73
2022/05/26 06:02:32;;;;;;;3.50;1.27;;;14.60;99.90;;;;;;5029482;28;20025;-75
2022/05/26 06:04:58;;;;;;;2.80;1.20;;;14.70;99.90;;;;;;5029491;28;20029;-71
2022/05/26 06:07:24;;;;;;;2.60;1.13;;;14.80;99.90;;;;;;5029881;28;20049;-74
2022/05/26 06:09:51;;;;;;;2.58;1.20;;;14.90;99.90;;;;;;5029787;28;20040;-71
2022/05/26 06:12:17;;;;;;;5.38;1.50;;;15.00;99.90;;;;;;5031170;28;20064;-75
2022/05/26 06:14:44;;;;;;;6.57;1.10;;;15.10;99.90;;;;;;5028212;28;20030;-73
2022/05/26 06:17:10;;;;;;;1.52;1.00;;;15.10;99.90;;;;;;5023644;28;20043;-72
2022/05/26 06:19:38;;;;;;;4.40;1.05;;;15.10;99.90;;;;;;5029173;28;20091;-75
2022/05/26 06:22:13;;;;;;;3.63;1.30;;;15.20;99.90;;;;;;5032248;28;20047;-75
2022/05/26 06:24:39;;;;;;;1.95;1.25;;;15.40;99.90;;;;;;5030574;28;20029;-73
2022/05/26 06:29:52;;;;;;;1.95;1.00;;;15.70;99.90;;;;;;5029311;28;20049;-74
2022/05/26 06:37:52;;;;;;;10.73;1.40;;;15.60;99.90;;;;;;5028260;28;20389;-72
2022/05/26 06:40:18;;;;;;;3.92;1.00;;;15.40;99.90;;;;;;5023341;28;20054;-71
2022/05/26 06:42:45;;;;;;;3.00;1.00;;;15.30;99.90;;;;;;5029984;28;20036;-72
2022/05/26 06:45:13;;;;;;;5.28;1.00;;;15.30;99.90;;;;;;5031385;28;20025;-73
2022/05/26 06:47:39;;;;;;;4.32;0.82;;;15.30;99.90;;;;;;5023773;28;20030;-75
2022/05/26 06:50:05;;;;;;;2.58;0.85;;;15.30;99.90;;;;;;5030823;28;20095;-72
2022/05/26 06:52:31;;;;;;;1.52;0.77;;;15.40;99.90;;;;;;5026805;28;20032;-74
2022/05/26 06:54:58;;;;;;;3.65;1.00;;;15.50;99.90;;;;;;5025443;28;20034;-71
2022/05/26 06:57:24;;;;;;;5.68;1.17;;;15.50;99.90;;;;;;5025350;28;20049;-71
2022/05/26 06:59:51;;;;;;;2.70;0.90;;;15.60;99.90;;;;;;5031103;28;20038;-72
2022/05/26 07:02:17;;;;;;;5.18;0.80;;;15.60;99.90;;;;;;5031509;28;20117;-73
2022/05/26 07:04:43;;;;;;;2.88;1.05;;;15.80;99.90;;;;;;5030657;28;20088;-73
2022/05/26 07:07:12;;;;;;;2.40;0.88;;;16.00;99.90;;;;;;5031176;28;20045;-72
2022/05/26 07:09:38;;;;;;;3.72;1.00;;;15.90;99.90;;;;;;5029627;28;20037;-72
2022/05/26 07:12:04;;;;;;;1.95;0.80;;;15.80;99.90;;;;;;5030637;28;20030;-73
2022/05/26 07:14:30;;;;;;;2.50;0.80;;;15.90;99.90;;;;;;5029582;28;20041;-73
2022/05/26 07:16:55;;;;;;;1.10;0.80;;;15.80;99.90;;;;;;5031270;28;20034;-71
2022/05/26 07:19:21;;;;;;;1.80;0.80;;;15.90;99.90;;;;;;5031180;28;20033;-72
2022/05/26 07:21:48;;;;;;;4.05;0.90;;;15.80;99.90;;;;;;5030297;28;20033;-73
2022/05/26 07:24:17;;;;;;;5.43;0.95;;;15.90;99.90;;;;;;5029641;28;20029;-72
2022/05/26 07:26:42;;;;;;;4.57;1.00;;;15.90;99.90;;;;;;5030203;28;20091;-74
2022/05/26 07:29:08;;;;;;;2.90;1.25;;;15.90;99.90;;;;;;5031385;28;20037;-72
2022/05/26 07:31:34;;;;;;;1.92;0.90;;;15.90;99.90;;;;;;5030064;28;20056;-72
2022/05/26 07:34:01;;;;;;;6.22;0.70;;;15.90;99.90;;;;;;5030881;28;20026;-71
2022/05/26 07:42:01;;;;;;;3.38;1.00;;;16.10;99.90;;;;;;5030752;28;20052;-73
2022/05/26 07:44:29;;;;;;;1.73;0.90;;;16.10;99.90;;;;;;5029972;28;20029;-72
2022/05/26 07:46:55;;;;;;;7.20;1.08;;;16.00;99.90;;;;;;5030481;28;20428;-72
2022/05/26 07:49:21;;;;;;;2.78;0.70;;;16.20;99.90;;;;;;5030979;28;20034;-75
2022/05/26 07:51:46;;;;;;;3.10;0.93;;;16.30;99.90;;;;;;5029803;28;20032;-71
2022/05/26 07:54:13;;;;;;;4.63;1.00;;;16.30;99.90;;;;;;5029650;28;20022;-72
2022/05/26 07:56:38;;;;;;;2.38;0.90;;;16.30;99.90;;;;;;5029707;28;20371;-73
2022/05/26 07:59:05;;;;;;;3.40;1.00;;;16.30;99.90;;;;;;5029833;28;20034;-71
2022/05/26 08:01:32;;;;;;;2.30;0.85;;;16.40;99.90;;;;;;5028836;28;20040;-71
2022/05/26 08:03:58;;;;;;;2.63;0.80;;;16.30;99.90;;;;;;5021616;28;21118;-72
2022/05/26 08:06:24;;;;;;;6.38;0.82;;;16.20;99.90;;;;;;5028310;28;20052;-73
2022/05/26 08:08:50;;;;;;;2.88;0.90;;;16.10;99.90;;;;;;5025763;28;20045;-73
2022/05/26 08:11:16;;;;;;;7.15;0.93;;;16.20;99.90;;;;;;5029158;28;20026;-72
2022/05/26 08:13:42;;;;;;;2.97;0.80;;;16.10;99.90;;;;;;5021470;28;20038;-72
2022/05/26 08:16:07;;;;;;;3.63;1.10;;;16.30;99.90;;;;;;5024113;28;20069;-71
2022/05/26 08:18:34;;;;;;;1.38;0.60;;;16.50;99.90;;;;;;5027256;28;20065;-73
2022/05/26 08:21:08;;;;;;;10.68;1.13;;;16.50;99.90;;;;;;5011298;28;20037;-73
2022/05/26 08:23:34;;;;;;;2.42;1.15;;;16.60;99.90;;;;;;5026136;28;20034;-71
2022/05/26 08:25:59;;;;;;;1.85;0.85;;;16.40;99.90;;;;;;5023572;28;20056;-73
2022/05/26 08:28:25;;;;;;;1.65;0.95;;;16.40;99.90;;;;;;5028181;28;20099;-71
2022/05/26 08:30:51;;;;;;;1.85;0.80;;;16.50;99.90;;;;;;5007667;28;20039;-73
2022/05/26 08:33:16;;;;;;;3.75;1.50;;;16.60;99.90;;;;;;5028903;28;20091;-73
2022/05/26 08:35:42;;;;;;;3.22;1.00;;;16.70;99.90;;;;;;5028450;28;20055;-74
2022/05/26 08:38:08;;;;;;;3.63;1.10;;;16.90;99.90;;;;;;5029708;28;20083;-72
2022/05/26 08:40:57;;;;;;;3.33;1.10;;;16.90;99.90;;;;;;5026972;28;20482;-73
2022/05/26 08:44:00;;;;;;;1.35;0.80;;;16.90;99.90;;;;;;5026400;28;20049;-72
2022/05/26 08:46:36;;;;;;;5.25;1.00;;;17.30;99.90;;;;;;5012895;28;20490;-72
2022/05/26 08:49:36;;;;;;;2.13;0.80;;;17.30;99.90;;;;;;5027262;28;20359;-72
2022/05/26 08:52:11;;;;;;;0.98;0.63;;;17.60;99.90;;;;;;5026537;28;20053;-73
2022/05/26 08:54:42;;;;;;;4.57;0.88;;;17.70;99.90;;;;;;5008282;28;20489;-72
2022/05/26 08:57:10;;;;;;;;;;;17.80;99.90;;;;;;5007352;28;20137;-72
2022/05/26 08:59:44;;;;;;;1.40;0.82;;;17.80;99.90;;;;;;5027113;28;19916;-72
2022/05/26 09:02:34;;;;;;;4.22;0.88;;;17.90;99.90;;;;;;5029505;28;20034;-71
2022/05/26 09:05:03;;;;;;;3.67;0.73;;;18.00;99.90;;;;;;5017546;28;20486;-72
2022/05/26 09:13:14;;;;;;;1.40;0.77;;;18.00;99.90;;;;;;5028322;28;20795;-73
2022/05/26 09:15:40;;;;;;;4.30;1.23;;;18.00;99.90;;;;;;5028605;28;20127;-73
2022/05/26 09:18:15;;;;;;;6.18;0.90;;;18.00;99.90;;;;;;5029376;28;20021;-73
2022/05/26 09:20:42;;;;;;;2.10;0.70;;;18.10;99.90;;;;;;5028840;28;20104;-72
2022/05/26 09:23:21;;;;;;;3.42;0.70;;;17.90;99.90;;;;;;5029424;28;20029;-73
2022/05/26 09:26:09;;;;;;;1.80;0.70;;;17.80;99.90;;;;;;5028734;28;20067;-72
2022/05/26 09:28:38;;;;;;;5.53;0.77;;;17.80;99.90;;;;;;5008522;28;20034;-72
2022/05/26 09:31:32;;;;;;;1.80;0.70;;;17.60;99.90;;;;;;5009619;28;20029;-72
2022/05/26 09:34:05;;;;;;;2.08;1.00;;;17.40;99.90;;;;;;5009416;28;20040;-73
2022/05/26 09:36:37;;;;;;;3.38;1.00;;;17.20;99.90;;;;;;5009808;28;20084;-72
2022/05/26 09:39:05;;;;;;;1.38;0.70;;;17.10;99.90;;;;;;5013425;28;20077;-72
2022/05/26 09:41:47;;;;;;;3.05;0.68;;;17.10;99.90;;;;;;5019279;28;20060;-73
2022/05/26 09:44:28;;;;;;;2.65;0.70;;;17.20;99.90;;;;;;5032836;28;20482;-72
2022/05/26 09:46:57;;;;;;;2.40;0.65;;;17.30;99.90;;;;;;5032034;28;20045;-72
2022/05/26 09:49:26;;;;;;;7.00;0.70;;;17.20;99.90;;;;;;5031316;28;20095;-73
2022/05/26 09:52:14;;;;;;;2.60;0.70;;;17.30;99.90;;;;;;5031698;28;20149;-73
2022/05/26 09:54:40;;;;;;;2.40;0.90;;;17.40;99.90;;;;;;5032102;28;20035;-73
2022/05/26 09:57:32;;;;;;;3.63;0.82;;;17.60;99.90;;;;;;5032816;28;20382;-72
2022/05/26 09:59:57;;;;;;;2.38;0.98;;;17.90;99.90;;;;;;5027478;28;20041;-72
2022/05/26 10:02:40;;;;;;;6.88;1.20;;;18.10;99.90;;;;;;5032692;28;20034;-72
2022/05/26 10:05:24;;;;;;;4.57;0.85;;;18.30;99.90;;;;;;5012745;28;20034;-71
2022/05/26 10:08:12;;;;;;;1.98;0.70;;;18.30;99.90;;;;;;5011586;28;20045;-72
2022/05/26 10:10:44;;;;;;;2.63;0.88;;;18.20;99.90;;;;;;4994407;28;20036;-71
2022/05/26 10:13:27;;;;;;;2.78;0.95;;;18.30;99.90;;;;;;5031127;28;20474;-74
2022/05/26 10:16:06;;;;;;;2.63;0.80;;;18.50;99.90;;;;;;5031690;28;20533;-73
2022/05/26 10:18:40;;;;;;;2.33;0.68;;;18.40;99.90;;;;;;5032175;28;20040;-71
2022/05/26 10:21:13;;;;;;;1.10;0.70;;;18.20;99.90;;;;;;5030722;28;20032;-72
2022/05/26 10:24:00;;;;;;;1.35;0.80;;;18.30;99.90;;;;;;5031246;28;20036;-73
2022/05/26 10:26:50;;;;;;;3.00;1.08;;;18.40;99.90;;;;;;5031510;28;20034;-72
2022/05/26 10:29:41;;;;;;;5.25;0.90;;;18.60;99.90;;;;;;5031912;28;20449;-74
2022/05/26 10:32:08;;;;;;;;;;;18.60;99.90;;;;;;5018328;28;20049;-73
2022/05/26 10:34:45;;;;;;;5.65;0.80;;;18.30;99.90;;;;;;5031788;28;20265;-73
2022/05/26 10:37:36;;;;;;;4.07;0.70;;;18.20;99.90;;;;;;5031825;28;20037;-73
2022/05/26 10:40:25;;;;;;;3.55;0.90;;;18.10;99.90;;;;;;5031615;28;20067;-73
2022/05/26 10:42:54;;;;;;;3.58;0.90;;;18.20;99.90;;;;;;5029726;28;20095;-73
2022/05/26 10:45:33;;;;;;;3.13;1.27;;;18.20;99.90;;;;;;5031831;28;20473;-72
2022/05/26 10:48:08;;;;;;;2.67;0.63;;;18.10;99.90;;;;;;5029755;28;20744;-73
2022/05/26 10:50:44;;;;;;;5.82;1.05;;;17.90;99.90;;;;;;5031855;28;20039;-72
2022/05/26 10:53:29;;;;;;;4.93;0.77;;;17.60;99.90;;;;;;5031840;28;20314;-72
2022/05/26 10:56:20;;;;;;;4.22;0.77;;;17.60;99.90;;;;;;5031024;28;20482;-71
2022/05/26 10:58:55;;;;;;;4.03;0.70;;;17.60;99.90;;;;;;5030149;28;20030;-72
2022/05/26 11:01:35;;;;;;;1.33;0.80;;;17.60;99.90;;;;;;5031958;28;20034;-71
2022/05/26 11:04:19;;;;;;;3.70;0.80;;;17.70;99.90;;;;;;5030733;28;20033;-73
2022/05/26 11:06:46;;;;;;;2.38;0.60;;;17.50;99.90;;;;;;5030613;28;20045;-72
2022/05/26 11:09:22;;;;;;;1.98;0.68;;;17.50;99.90;;;;;;5013813;28;20493;-72
2022/05/26 11:11:51;;;;;;;1.70;0.80;;;17.50;99.90;;;;;;5029534;28;20473;-71
2022/05/26 11:17:59;;;;;;;1.13;0.80;;;17.60;99.90;;;;;;5031377;28;20075;-71
2022/05/26 11:20:34;;;;;;;2.97;0.75;;;17.50;99.90;;;;;;5031268;28;20026;-73
2022/05/26 11:23:04;;;;;;;7.28;1.00;;;17.40;99.90;;;;;;5030335;28;20217;-72
2022/05/26 11:25:38;;;;;;;1.33;0.90;;;17.40;99.90;;;;;;5030715;28;20057;-71
2022/05/26 11:28:09;;;;;;;5.00;0.90;;;17.40;99.90;;;;;;5030543;28;20041;-73
2022/05/26 11:36:51;;;;;;;3.35;1.27;;;17.30;99.90;;;;;;5024574;28;20047;-77
2022/05/26 11:39:38;;;;;;;1.40;0.80;;;17.30;99.90;;;;;;5026695;28;20385;-72
2022/05/26 11:42:08;;;;;;;2.80;0.73;;;17.30;99.90;;;;;;5026661;28;20042;-72
2022/05/26 11:44:38;;;;;;;1.58;0.80;;;17.40;99.90;;;;;;5010617;28;20033;-70
2022/05/26 11:47:34;;;;;;;2.72;0.80;;;17.40;99.90;;;;;;5028142;28;20117;-71
2022/05/26 11:50:19;;;;;;;1.10;0.70;;;17.40;99.90;;;;;;5021339;28;20723;-72
2022/05/26 11:52:45;;;;;;;8.02;1.10;;;17.30;99.90;;;;;;5027635;28;20034;-70
2022/05/26 11:55:18;;;;;;;1.92;1.10;;;17.50;99.90;;;;;;5029950;28;20033;-70
2022/05/26 11:57:43;;;;;;;5.25;1.17;;;17.60;99.90;;;;;;5025194;28;20104;-70
2022/05/26 12:00:15;;;;;;;1.42;0.88;;;17.70;99.90;;;;;;5027817;28;20552;-71
2022/05/26 12:02:42;;;;;;;2.97;0.90;;;17.80;99.90;;;;;;5029065;28;20068;-70
2022/05/26 12:05:29;;;;;;;1.73;0.90;;;18.00;99.90;;;;;;5027058;28;20030;-70
2022/05/26 12:07:57;;;;;;;1.63;1.00;;;18.00;99.90;;;;;;5028248;28;20557;-71
2022/05/26 12:10:57;;;;;;;2.38;0.93;;;18.10;99.90;;;;;;5037660;28;20059;-70
2022/05/26 12:13:25;;;;;;;1.48;0.82;;;18.00;99.90;;;;;;5019375;28;20490;-71
2022/05/26 12:16:18;;;;;;;3.17;1.20;;;17.80;99.90;;;;;;5028375;28;20029;-70
2022/05/26 12:19:02;;;;;;;3.25;1.75;;;17.90;99.90;;;;;;5029233;28;20025;-69
2022/05/26 12:21:28;;;;;;;5.10;0.80;;;17.90;99.90;;;;;;5029064;28;20033;-70
2022/05/26 12:23:58;;;;;;;1.70;0.73;;;17.90;99.90;;;;;;5028220;28;20079;-72
2022/05/26 12:26:25;;;;;;;3.10;0.85;;;18.00;99.90;;;;;;5027399;28;20151;-70
2022/05/26 12:28:51;;;;;;;2.58;0.90;;;18.00;99.90;;;;;;5026040;28;20052;-69
2022/05/26 12:31:17;;;;;;;2.60;1.30;;;18.00;99.90;;;;;;5027923;28;20022;-71
2022/05/26 12:34:11;;;;;;;6.30;1.10;;;18.00;99.90;;;;;;5024416;28;20112;-69
2022/05/26 12:36:49;;;;;;;6.68;1.13;;;17.80;99.90;;;;;;5028262;28;20045;-70
2022/05/26 12:39:21;;;;;;;3.17;0.93;;;17.60;99.90;;;;;;5027926;28;20029;-71
2022/05/26 12:41:56;;;;;;;1.80;0.80;;;17.50;99.90;;;;;;5028078;28;20111;-70
2022/05/26 12:44:56;;;;;;;2.95;1.00;;;17.40;99.90;;;;;;5025937;28;20029;-70
2022/05/26 12:47:37;;;;;;;4.10;1.10;;;17.40;99.90;;;;;;5028969;28;20041;-70
2022/05/26 12:50:08;;;;;;;4.05;1.27;;;17.60;99.90;;;;;;5026997;28;20021;-72
2022/05/26 12:52:40;;;;;;;3.03;0.98;;;17.70;99.90;;;;;;5027371;28;20034;-70
2022/05/26 12:55:21;;;;;;;2.97;1.23;;;17.70;99.90;;;;;;5027968;28;20481;-71
2022/05/26 12:58:05;;;;;;;;;;;17.80;99.90;;;;;;5026525;28;20033;-71
2022/05/26 13:00:37;;;;;;;4.28;1.10;;;17.90;99.90;;;;;;5027378;28;19917;-71
2022/05/26 13:03:15;;;;;;;4.50;1.05;;;18.00;99.90;;;;;;5027103;28;20021;-70
2022/05/26 13:05:44;;;;;;;2.70;0.90;;;18.20;99.90;;;;;;5027750;28;20026;-70
2022/05/26 13:08:17;;;;;;;1.55;0.90;;;18.30;99.90;;;;;;5027744;28;20041;-73
2022/05/26 13:10:44;;;;;;;4.38;0.93;;;18.40;99.90;;;;;;5027595;28;20036;-69
2022/05/26 13:13:38;;;;;;;3.55;1.00;;;18.50;99.90;;;;;;5032065;28;20512;-70
2022/05/26 13:16:32;;;;;;;6.75;1.20;;;18.50;99.90;;;;;;5029411;28;20025;-69
2022/05/26 13:19:13;;;;;;;3.15;1.27;;;18.20;99.90;;;;;;5029342;28;20061;-70
2022/05/26 13:21:40;;;;;;;3.00;0.90;;;18.10;99.90;;;;;;5014392;28;20459;-70
2022/05/26 13:24:15;;;;;;;1.38;0.93;;;18.10;99.90;;;;;;5030344;28;20092;-71
2022/05/26 13:26:42;;;;;;;4.05;0.90;;;17.90;99.90;;;;;;5031922;28;20029;-71
2022/05/26 13:29:09;;;;;;;1.90;1.00;;;17.80;99.90;;;;;;5029833;28;20640;-70
2022/05/26 13:34:27;;;;;;;4.72;0.90;;;17.70;99.90;;;;;;5031355;28;20036;-71
2022/05/26 13:36:53;;;;;;;2.63;1.00;;;17.70;99.90;;;;;;5031858;28;20042;-70
2022/05/26 13:39:22;;;;;;;3.70;1.10;;;17.80;99.90;;;;;;5032271;28;20112;-68
2022/05/26 13:41:51;;;;;;;2.65;1.17;;;18.00;99.90;;;;;;5030507;28;20026;-70
2022/05/26 13:44:40;;;;;;;2.95;1.00;;;18.20;99.90;;;;;;5028546;28;20404;-72
2022/05/26 13:47:08;;;;;;;2.83;1.17;;;18.50;99.90;;;;;;5032267;28;20044;-70
2022/05/26 13:49:55;;;;;;;3.33;1.00;;;19.00;99.90;;;;;;5031711;28;20045;-71
2022/05/26 13:52:23;;;;;;;2.05;1.02;;;19.50;99.90;;;;;;4995780;28;20517;-70
2022/05/26 13:54:55;;;;;;;3.03;1.30;;;20.00;99.90;;;;;;5031998;28;20033;-71